createdAt,value
2022-12-28T00:02:43.648Z,92.29
2022-12-28T00:06:47.066Z,92.41
2022-12-28T00:11:08.211Z,92.57
2022-12-28T00:15:10.958Z,92.53
2022-12-28T00:19:15.939Z,92.57
2022-12-28T00:23:17.829Z,92.62
2022-12-28T00:27:19.732Z,92.63
2022-12-28T00:31:22.095Z,92.44
2022-12-28T00:35:23.989Z,92.37
2022-12-28T00:39:26.053Z,92.59
2022-12-28T00:43:28.214Z,92.86
2022-12-28T00:47:30.134Z,92.94
2022-12-28T00:51:31.997Z,93.02
2022-12-28T00:55:34.528Z,92.97
2022-12-28T00:59:36.422Z,92.99
2022-12-28T01:03:38.434Z,93.06
2022-12-28T01:07:40.311Z,93.11
2022-12-28T01:11:42.155Z,93.28
2022-12-28T01:15:44.022Z,93.46
2022-12-28T01:19:51.991Z,93.65
2022-12-28T01:23:58.949Z,93.62
2022-12-28T01:28:00.827Z,93.49
2022-12-28T01:32:02.853Z,93.50
2022-12-28T01:36:07.142Z,93.66
2022-12-28T01:40:13.429Z,93.83
2022-12-28T01:44:15.499Z,93.86
2022-12-28T01:48:24.537Z,93.77
2022-12-28T01:52:41.323Z,93.68
2022-12-28T01:56:43.994Z,93.67
2022-12-28T02:00:46.057Z,93.74
2022-12-28T02:04:48.888Z,93.86
2022-12-28T02:09:13.849Z,93.98
2022-12-28T02:13:17.599Z,93.95
2022-12-28T02:17:19.577Z,94.02
2022-12-28T02:21:31.433Z,93.91
2022-12-28T02:25:33.773Z,93.90
2022-12-28T02:29:45.167Z,93.90
2022-12-28T02:34:15.000Z,93.97
2022-12-28T02:38:37.333Z,94.15
2022-12-28T02:42:40.644Z,94.35
2022-12-28T02:47:02.776Z,94.29
2022-12-28T02:51:12.375Z,94.24
2022-12-28T02:55:51.851Z,94.15
2022-12-28T02:59:54.242Z,94.04
2022-12-28T03:04:07.143Z,93.97
2022-12-28T03:08:19.672Z,94.24
2022-12-28T03:12:29.112Z,94.22
2022-12-28T03:16:57.922Z,94.26
2022-12-28T03:21:25.050Z,94.29
2022-12-28T03:25:52.610Z,94.19
2022-12-28T03:30:36.145Z,94.10
2022-12-28T03:34:38.807Z,94.05
2022-12-28T03:38:48.083Z,94.26
2022-12-28T03:43:13.211Z,94.35
2022-12-28T03:47:17.192Z,94.55
2022-12-28T03:51:22.450Z,94.67
2022-12-28T03:55:25.280Z,94.54
2022-12-28T03:59:27.615Z,94.48
2022-12-28T04:03:30.484Z,94.34
2022-12-28T04:07:32.390Z,94.20
2022-12-28T04:11:34.524Z,94.02
2022-12-28T04:15:36.755Z,94.18
2022-12-28T04:19:39.179Z,94.41
2022-12-28T04:23:42.244Z,94.46
2022-12-28T04:27:49.982Z,94.70
2022-12-28T04:32:10.429Z,94.63
2022-12-28T04:36:15.903Z,94.64
2022-12-28T04:40:18.739Z,94.51
2022-12-28T04:44:20.690Z,94.37
2022-12-28T04:48:22.527Z,94.30
2022-12-28T04:52:24.465Z,94.47
2022-12-28T04:56:26.731Z,94.57
2022-12-28T05:00:28.767Z,94.72
2022-12-28T05:04:30.682Z,94.82
2022-12-28T05:08:34.575Z,94.86
2022-12-28T05:12:36.473Z,94.93
2022-12-28T05:16:38.390Z,95.00
2022-12-28T05:20:40.664Z,94.97
2022-12-28T05:24:42.504Z,94.97
2022-12-28T05:28:44.826Z,95.14
2022-12-28T05:32:46.836Z,95.19
2022-12-28T05:36:48.849Z,95.28
2022-12-28T05:40:50.850Z,95.25
2022-12-28T05:44:52.697Z,95.32
2022-12-28T05:48:55.137Z,95.18
2022-12-28T05:52:58.059Z,95.08
2022-12-28T05:57:00.051Z,95.05
2022-12-28T06:01:09.166Z,95.20
2022-12-28T06:05:11.085Z,95.24
2022-12-28T06:09:13.633Z,95.30
2022-12-28T06:13:15.477Z,95.49
2022-12-28T06:17:17.337Z,95.71
2022-12-28T06:21:39.246Z,95.77
2022-12-28T06:25:41.237Z,95.59
2022-12-28T06:29:43.067Z,95.36
2022-12-28T06:33:46.289Z,95.21
2022-12-28T06:37:48.970Z,95.39
2022-12-28T06:41:51.001Z,95.48
2022-12-28T06:45:56.903Z,95.60
2022-12-28T06:49:59.155Z,95.63
2022-12-28T06:54:01.837Z,95.93
2022-12-28T06:58:03.722Z,95.99
2022-12-28T07:02:06.292Z,95.94
2022-12-28T07:06:09.354Z,95.83
2022-12-28T07:10:11.188Z,95.82
2022-12-28T07:14:13.448Z,95.84
2022-12-28T07:18:15.396Z,95.93
2022-12-28T07:22:17.329Z,96.06
2022-12-28T07:26:21.686Z,96.16
2022-12-28T07:30:23.585Z,96.24
2022-12-28T07:34:25.576Z,96.23
2022-12-28T07:38:27.533Z,96.32
2022-12-28T07:42:31.320Z,96.58
2022-12-28T07:46:35.846Z,96.58
2022-12-28T07:50:38.264Z,96.65
2022-12-28T07:54:40.287Z,96.67
2022-12-28T08:02:48.164Z,96.51
2022-12-28T08:06:50.061Z,96.22
2022-12-28T08:10:51.917Z,96.23
2022-12-28T08:14:53.759Z,96.16
2022-12-28T08:18:55.710Z,96.34
2022-12-28T08:22:57.680Z,96.42
2022-12-28T08:26:59.613Z,96.48
2022-12-28T08:31:06.816Z,96.53
2022-12-28T08:35:08.987Z,96.57
2022-12-28T08:39:10.814Z,96.60
2022-12-28T08:43:12.747Z,96.71
2022-12-28T08:47:14.663Z,96.95
2022-12-28T08:51:18.272Z,97.08
2022-12-28T08:55:20.434Z,96.98
2022-12-28T08:59:22.592Z,96.92
2022-12-28T09:03:24.530Z,96.91
2022-12-28T09:07:26.396Z,96.74
2022-12-28T09:11:28.456Z,96.56
2022-12-28T09:15:30.311Z,96.69
2022-12-28T09:19:32.203Z,96.80
2022-12-28T09:23:34.609Z,96.68
2022-12-28T09:27:36.569Z,96.55
2022-12-28T09:31:40.150Z,96.35
2022-12-28T09:35:42.262Z,96.31
2022-12-28T09:39:44.145Z,96.36
2022-12-28T09:43:46.389Z,96.45
2022-12-28T09:47:54.671Z,96.52
2022-12-28T09:52:22.462Z,96.41
2022-12-28T09:56:33.749Z,96.17
2022-12-28T10:00:43.361Z,96.04
2022-12-28T10:04:49.500Z,96.09
2022-12-28T10:08:54.991Z,96.01
2022-12-28T10:13:02.593Z,96.06
2022-12-28T10:17:06.987Z,96.10
2022-12-28T10:21:09.962Z,96.16
2022-12-28T10:25:26.348Z,95.86
2022-12-28T10:29:32.621Z,95.48
2022-12-28T10:33:38.933Z,95.39
2022-12-28T10:37:44.326Z,95.37
2022-12-28T10:41:47.756Z,95.26
2022-12-28T10:45:51.217Z,95.23
2022-12-28T10:50:35.230Z,95.20
2022-12-28T10:54:27.845Z,95.15
2022-12-28T10:58:34.387Z,95.04
2022-12-28T11:02:36.710Z,94.85
2022-12-28T11:07:02.185Z,94.82
2022-12-28T11:11:04.238Z,94.75
2022-12-28T11:15:08.332Z,94.81
2022-12-28T11:19:12.357Z,94.66
2022-12-28T11:23:34.304Z,94.39
2022-12-28T11:27:36.423Z,94.49
2022-12-28T11:31:49.045Z,94.32
2022-12-28T11:35:59.407Z,94.19
2022-12-28T11:40:01.793Z,94.12
2022-12-28T11:44:04.726Z,94.03
2022-12-28T11:48:38.034Z,93.95
2022-12-28T11:52:49.251Z,94.01
2022-12-28T11:56:51.120Z,93.93
2022-12-28T12:00:53.080Z,94.01
2022-12-28T12:04:55.055Z,93.82
2022-12-28T12:08:56.960Z,93.67
2022-12-28T12:13:01.483Z,93.73
2022-12-28T12:17:11.858Z,93.84
2022-12-28T12:21:30.777Z,93.81
2022-12-28T12:25:46.051Z,93.76
2022-12-28T12:29:59.233Z,93.73
2022-12-28T12:34:19.581Z,93.73
2022-12-28T12:39:03.704Z,93.73
2022-12-28T12:43:17.837Z,93.60
2022-12-28T12:47:46.541Z,93.58
2022-12-28T12:52:27.513Z,93.60
2022-12-28T12:56:52.697Z,93.56
2022-12-28T13:01:06.798Z,93.55
2022-12-28T13:05:19.013Z,93.43
2022-12-28T13:09:24.634Z,93.39
2022-12-28T13:13:35.875Z,93.24
2022-12-28T13:17:37.847Z,93.20
2022-12-28T13:21:45.694Z,93.15
2022-12-28T13:25:50.740Z,93.06
2022-12-28T13:29:54.360Z,92.98
2022-12-28T13:34:03.606Z,92.87
2022-12-28T13:38:08.737Z,92.85
2022-12-28T13:42:29.603Z,92.95
2022-12-28T13:46:31.734Z,93.00
2022-12-28T13:50:38.671Z,92.95
2022-12-28T13:54:46.521Z,92.80
2022-12-28T13:58:52.429Z,92.71
2022-12-28T14:02:56.451Z,92.65
2022-12-28T14:06:59.197Z,92.65
2022-12-28T14:11:02.402Z,92.67
2022-12-28T14:15:06.284Z,92.62
2022-12-28T14:19:09.400Z,92.42
2022-12-28T14:23:29.298Z,92.17
2022-12-28T14:27:36.631Z,92.02
2022-12-28T14:31:38.983Z,92.04
2022-12-28T14:35:54.632Z,91.81
2022-12-28T14:40:03.744Z,91.80
2022-12-28T14:44:12.664Z,91.83
2022-12-28T14:48:21.196Z,91.74
2022-12-28T14:52:41.170Z,91.72
2022-12-28T14:56:47.602Z,91.79
2022-12-28T15:01:05.503Z,91.68
2022-12-28T15:05:37.573Z,91.71
2022-12-28T15:09:39.467Z,91.54
2022-12-28T15:13:42.745Z,91.44
2022-12-28T15:17:46.586Z,91.31
2022-12-28T15:21:48.436Z,91.28
2022-12-28T15:25:50.800Z,91.22
2022-12-28T15:30:09.939Z,91.20
2022-12-28T15:34:14.533Z,91.12
2022-12-28T15:38:16.469Z,91.00
2022-12-28T15:42:18.450Z,90.97
2022-12-28T15:46:20.678Z,90.94
2022-12-28T15:50:22.548Z,91.00
2022-12-28T15:54:24.501Z,91.00
2022-12-28T15:58:27.222Z,90.93
2022-12-28T16:02:29.222Z,90.98
2022-12-28T16:06:34.242Z,90.98
2022-12-28T16:10:39.557Z,91.05
2022-12-28T16:14:41.559Z,91.19
2022-12-28T16:18:43.523Z,91.20
2022-12-28T16:22:45.871Z,91.18
2022-12-28T16:26:47.796Z,91.12
2022-12-28T16:30:49.883Z,91.15
2022-12-28T16:34:54.528Z,91.18
2022-12-28T16:38:56.825Z,91.14
2022-12-28T16:42:58.673Z,91.01
2022-12-28T16:47:00.610Z,91.08
2022-12-28T16:51:03.130Z,91.03
2022-12-28T16:55:05.241Z,91.07
2022-12-28T16:59:07.201Z,91.02
2022-12-28T17:03:09.075Z,91.07
2022-12-28T17:07:10.983Z,91.10
2022-12-28T17:11:13.298Z,91.07
2022-12-28T17:15:15.390Z,90.96
2022-12-28T17:19:17.284Z,90.88
2022-12-28T17:23:19.193Z,90.89
2022-12-28T17:27:21.047Z,90.87
2022-12-28T17:31:23.129Z,90.89
2022-12-28T17:35:25.546Z,90.78
2022-12-28T17:39:27.529Z,90.84
2022-12-28T17:43:30.671Z,90.72
2022-12-28T17:47:32.538Z,90.73
2022-12-28T17:51:34.552Z,90.82
2022-12-28T17:55:37.022Z,90.74
2022-12-28T17:59:39.057Z,90.66
2022-12-28T18:03:41.177Z,90.67
2022-12-28T18:07:43.198Z,90.70
2022-12-28T18:11:45.138Z,90.69
2022-12-28T18:15:47.280Z,90.76
2022-12-28T18:19:53.035Z,90.77
2022-12-28T18:23:55.007Z,90.75
2022-12-28T18:27:57.085Z,90.66
2022-12-28T18:31:59.277Z,90.71
2022-12-28T18:36:05.709Z,90.85
2022-12-28T18:40:09.151Z,90.79
2022-12-28T18:44:11.097Z,90.76
2022-12-28T18:48:14.403Z,90.73
2022-12-28T18:52:18.046Z,90.56
2022-12-28T18:56:21.082Z,90.68
2022-12-28T19:00:24.547Z,90.79
2022-12-28T19:04:28.883Z,90.75
2022-12-28T19:08:33.047Z,90.75
2022-12-28T19:12:34.973Z,90.69
2022-12-28T19:16:36.925Z,90.71
2022-12-28T19:20:38.879Z,90.74
2022-12-28T19:24:40.783Z,90.67
2022-12-28T19:28:44.865Z,90.68
2022-12-28T19:32:46.702Z,90.77
2022-12-28T19:36:48.739Z,90.69
2022-12-28T19:40:50.606Z,90.64
2022-12-28T19:44:52.514Z,90.66
2022-12-28T19:48:54.379Z,90.64
2022-12-28T19:52:56.245Z,90.63
2022-12-28T19:56:58.188Z,90.70
2022-12-28T20:01:09.438Z,90.75
2022-12-28T20:05:11.433Z,90.74
2022-12-28T20:09:14.389Z,90.75
2022-12-28T20:13:16.707Z,90.77
2022-12-28T20:17:19.926Z,90.74
2022-12-28T20:21:23.899Z,90.74
2022-12-28T20:25:25.828Z,90.77
2022-12-28T20:29:27.891Z,90.61
2022-12-28T20:33:31.598Z,90.70
2022-12-28T20:37:33.522Z,90.67
2022-12-28T20:41:56.038Z,90.79
2022-12-28T20:45:58.406Z,90.75
2022-12-28T20:50:00.288Z,90.76
2022-12-28T20:54:02.384Z,90.69
2022-12-28T20:58:04.467Z,90.62
2022-12-28T21:02:08.539Z,90.64
2022-12-28T21:06:11.365Z,90.68
2022-12-28T21:10:13.673Z,90.66
2022-12-28T21:14:15.567Z,90.70
2022-12-28T21:18:18.632Z,90.61
2022-12-28T21:22:20.498Z,90.55
2022-12-28T21:26:22.790Z,90.58
2022-12-28T21:30:25.166Z,90.68
2022-12-28T21:34:28.960Z,90.67
2022-12-28T21:38:32.331Z,90.66
2022-12-28T21:42:35.435Z,90.65
2022-12-28T21:46:37.922Z,90.56
2022-12-28T21:50:39.842Z,90.51
2022-12-28T21:54:41.757Z,90.57
2022-12-28T21:58:46.952Z,90.63
2022-12-28T22:03:07.669Z,90.65
2022-12-28T22:07:12.434Z,90.59
2022-12-28T22:11:32.917Z,90.61
2022-12-28T22:15:53.138Z,90.51
2022-12-28T22:19:54.974Z,90.49
2022-12-28T22:23:56.973Z,90.55
2022-12-28T22:27:59.649Z,90.56
2022-12-28T22:32:01.589Z,90.60
2022-12-28T22:36:16.354Z,90.55
2022-12-28T22:40:19.121Z,90.50
2022-12-28T22:44:21.009Z,90.54
2022-12-28T22:48:23.153Z,90.64
2022-12-28T22:52:25.032Z,90.65
2022-12-28T22:56:26.950Z,90.60
2022-12-28T23:00:28.955Z,90.45
2022-12-28T23:04:31.132Z,90.39
2022-12-28T23:08:33.715Z,90.50
2022-12-28T23:12:35.550Z,90.58
2022-12-28T23:16:37.445Z,90.52
2022-12-28T23:20:58.231Z,90.54
2022-12-28T23:25:18.769Z,90.43
2022-12-28T23:29:23.257Z,90.36
2022-12-28T23:33:29.373Z,90.36
2022-12-28T23:37:31.691Z,90.42
2022-12-28T23:41:48.772Z,90.50
2022-12-28T23:45:50.837Z,90.59
2022-12-28T23:49:52.846Z,90.58
2022-12-28T23:53:54.735Z,90.58
2022-12-28T23:57:56.593Z,90.54
